La Porte, California
Current Conditions -  °F | °C
As of 9:52 PM on Thursday 27 Nov 2014 (Local Time) from KBLU Reporting Station
Clear Clear  
Wind Chill: 51°   Ceiling: Unl
Heat Index: 51°   Visibility: 10mi
Dew Point: 23°   Wind: 7mph
Humidity: 33%   Direction: 160°SSE
Pressure: 30.2"   Gusts: NA
Location:  39.6938°N, 121.001°W
Report Text: KBLU 280552Z AUTO 16006KT 10SM CLR 11/M05 A3020 RMK AO2 SLP175 T01061050 10139 20100 57002
Loading
Personal Weather Stations






























Interactive Weather Map New forecast layout! Learn more

10-Day Weather Forecast

Advertisements
Track Severe Weather on mobile